createdAt,value
2023-04-06T00:01:01.475Z,72.09
2023-04-06T00:04:13.372Z,71.74
2023-04-06T00:07:26.079Z,72.02
2023-04-06T00:10:31.109Z,71.70
2023-04-06T00:13:43.062Z,71.99
2023-04-06T00:16:46.152Z,72.02
2023-04-06T00:19:49.790Z,71.74
2023-04-06T00:22:55.222Z,71.88
2023-04-06T00:26:00.163Z,71.44
2023-04-06T00:29:05.275Z,72.07
2023-04-06T00:32:10.309Z,72.60
2023-04-06T00:35:13.333Z,73.07
2023-04-06T00:38:19.450Z,72.80
2023-04-06T00:41:25.326Z,73.70
2023-04-06T00:44:31.290Z,73.58
2023-04-06T00:47:36.422Z,74.59
2023-04-06T00:50:41.039Z,74.21
2023-04-06T00:53:46.510Z,74.46
2023-04-06T00:56:56.462Z,74.58
2023-04-06T01:03:18.561Z,74.96
2023-04-06T02:38:47.152Z,77.87
2023-04-06T02:41:57.002Z,77.96
2023-04-06T02:45:05.164Z,77.90
2023-04-06T02:48:39.619Z,78.12
2023-04-06T02:51:45.363Z,77.54
2023-04-06T02:55:16.460Z,77.37
2023-04-06T02:58:21.366Z,77.61
2023-04-06T03:01:37.546Z,77.92
2023-04-06T03:04:46.303Z,77.44
2023-04-06T03:08:08.122Z,77.57
2023-04-06T03:11:34.931Z,77.45
2023-04-06T03:14:41.235Z,77.57
2023-04-06T03:17:46.280Z,77.61
2023-04-06T03:21:06.617Z,77.83
2023-04-06T03:24:22.940Z,77.63
2023-04-06T03:27:35.078Z,78.12
2023-04-06T03:30:39.107Z,77.97
2023-04-06T03:33:51.786Z,77.82
2023-04-06T03:37:15.504Z,78.51
2023-04-06T03:40:42.574Z,78.29
2023-04-06T03:43:47.407Z,78.26
2023-04-06T03:46:55.639Z,78.08
2023-04-06T03:50:00.392Z,78.11
2023-04-06T03:53:25.733Z,78.45
2023-04-06T03:56:28.013Z,78.45
2023-04-06T03:59:31.148Z,78.28
2023-04-06T04:02:36.190Z,78.29
2023-04-06T04:05:40.914Z,78.36
2023-04-06T04:08:44.953Z,78.17
2023-04-06T04:11:48.312Z,78.08
2023-04-06T04:14:51.064Z,78.13
2023-04-06T04:17:55.098Z,78.46
2023-04-06T04:21:00.709Z,78.18
2023-04-06T04:24:04.447Z,78.21
2023-04-06T04:27:26.922Z,78.33
2023-04-06T04:30:33.343Z,78.77
2023-04-06T04:34:04.040Z,78.81
2023-04-06T04:37:19.868Z,78.80
2023-04-06T04:40:30.028Z,78.55
2023-04-06T04:44:02.494Z,78.56
2023-04-06T04:47:08.584Z,79.03
2023-04-06T04:50:20.411Z,79.17
2023-04-06T04:53:26.176Z,79.25
2023-04-06T04:56:43.918Z,79.14
2023-04-06T05:00:05.204Z,79.42
2023-04-06T05:03:21.652Z,79.06
2023-04-06T05:06:31.911Z,79.36
2023-04-06T05:09:36.873Z,79.45
2023-04-06T05:16:03.027Z,79.69
2023-04-06T05:19:11.108Z,79.42
2023-04-06T05:22:28.780Z,79.41
2023-04-06T05:29:04.848Z,79.44
2023-04-06T05:32:13.879Z,79.52
2023-04-06T05:35:26.217Z,79.81
2023-04-06T05:38:36.426Z,79.83
2023-04-06T05:41:50.706Z,79.63
2023-04-06T05:45:11.280Z,79.55
2023-04-06T05:48:18.639Z,79.81
2023-04-06T05:51:23.122Z,79.30
2023-04-06T05:54:24.901Z,79.41
2023-04-06T05:57:35.089Z,79.93
2023-04-06T06:00:43.460Z,79.89
2023-04-06T06:03:51.034Z,79.37
2023-04-06T06:06:53.756Z,79.24
2023-04-06T06:10:04.436Z,79.34
2023-04-06T06:13:18.834Z,79.30
2023-04-06T06:16:34.319Z,79.45
2023-04-06T06:19:47.984Z,79.05
2023-04-06T06:22:54.002Z,78.78
2023-04-06T06:26:08.495Z,78.99
2023-04-06T06:29:14.566Z,78.60
2023-04-06T06:32:30.816Z,78.36
2023-04-06T06:35:38.102Z,78.31
2023-04-06T06:38:42.968Z,78.64
2023-04-06T06:41:47.414Z,78.55
2023-04-06T06:44:52.826Z,78.09
2023-04-06T06:47:57.219Z,77.88
2023-04-06T06:51:00.462Z,78.09
2023-04-06T06:54:12.910Z,78.21
2023-04-06T06:57:38.174Z,77.91
2023-04-06T07:00:43.581Z,77.67
2023-04-06T07:07:19.101Z,77.23
2023-04-06T07:10:31.113Z,77.54
2023-04-06T07:13:36.156Z,77.54
2023-04-06T07:16:41.676Z,77.51
2023-04-06T07:23:12.974Z,76.57
2023-04-06T07:26:17.506Z,76.66
2023-04-06T07:29:22.753Z,76.85
2023-04-06T07:32:28.098Z,76.88
2023-04-06T07:35:35.165Z,76.00
2023-04-06T07:41:59.342Z,74.96
2023-04-06T07:45:05.336Z,74.58
2023-04-06T07:48:18.869Z,74.43
2023-04-06T07:51:23.800Z,74.36
2023-04-06T07:54:30.056Z,73.05
2023-04-06T07:57:33.414Z,73.31
2023-04-06T08:00:37.616Z,73.14
2023-04-06T08:03:48.629Z,72.94
2023-04-06T08:07:00.728Z,73.04
2023-04-06T08:10:31.408Z,72.29
2023-04-06T08:13:42.898Z,71.30
2023-04-06T08:20:05.470Z,68.77
2023-04-06T08:23:19.315Z,68.50
2023-04-06T08:29:39.278Z,67.41
2023-04-06T08:32:45.461Z,66.34
2023-04-06T08:35:54.750Z,65.89
2023-04-06T08:38:59.386Z,63.86
2023-04-06T08:42:11.887Z,63.12
2023-04-06T08:45:19.202Z,63.29
2023-04-06T08:48:42.871Z,62.06
2023-04-06T08:51:55.064Z,62.45
2023-04-06T08:54:59.058Z,62.80
2023-04-06T08:58:03.410Z,61.57
2023-04-06T09:01:19.975Z,61.71
2023-04-06T09:04:25.076Z,59.09
2023-04-06T09:07:38.163Z,58.61
2023-04-06T09:14:05.254Z,56.47
2023-04-06T09:17:11.292Z,56.43
2023-04-06T09:20:22.433Z,54.47
2023-04-06T09:23:27.271Z,54.61
2023-04-06T09:26:39.078Z,55.56
2023-04-06T09:33:04.123Z,53.60
2023-04-06T09:36:10.581Z,53.72
2023-04-06T09:39:16.321Z,53.92
2023-04-06T09:42:30.435Z,52.85
2023-04-06T09:45:41.188Z,47.09
2023-04-06T09:48:45.620Z,48.14
2023-04-06T09:51:59.997Z,47.55
2023-04-06T09:55:11.864Z,45.31
2023-04-06T09:58:21.107Z,47.19
2023-04-06T10:01:28.146Z,45.33
2023-04-06T10:04:46.857Z,45.38
2023-04-06T10:08:00.869Z,45.43
2023-04-06T10:11:15.240Z,45.15
2023-04-06T10:14:18.965Z,45.50
2023-04-06T10:17:21.280Z,45.75
2023-04-06T10:20:34.990Z,45.15
2023-04-06T10:23:56.120Z,43.87
2023-04-06T10:27:06.069Z,45.23
2023-04-06T10:30:10.988Z,44.89
2023-04-06T10:33:23.636Z,44.43
2023-04-06T10:36:30.487Z,44.50
2023-04-06T10:39:35.631Z,44.39
2023-04-06T10:42:46.746Z,43.04
2023-04-06T10:46:28.658Z,42.66
2023-04-06T10:49:34.096Z,42.96
2023-04-06T10:52:35.711Z,43.57
2023-04-06T10:55:42.600Z,43.25
2023-04-06T10:58:53.445Z,43.07
2023-04-06T11:02:04.360Z,42.81
2023-04-06T11:05:11.274Z,42.82
2023-04-06T11:08:36.586Z,42.34
2023-04-06T11:11:48.767Z,42.77
2023-04-06T11:15:14.885Z,42.91
2023-04-06T11:18:28.269Z,43.17
2023-04-06T11:25:12.673Z,42.93
2023-04-06T11:28:29.015Z,42.98
2023-04-06T11:31:44.702Z,42.74
2023-04-06T11:34:50.943Z,42.34
2023-04-06T11:37:57.547Z,41.86
2023-04-06T11:41:05.137Z,42.52
2023-04-06T11:44:12.173Z,42.68
2023-04-06T11:47:26.300Z,41.43
2023-04-06T11:50:39.453Z,40.47
2023-04-06T11:53:51.117Z,38.94
2023-04-06T11:56:56.454Z,38.71
2023-04-06T12:00:02.957Z,39.85
2023-04-06T12:03:09.521Z,40.46
2023-04-06T12:06:14.940Z,39.78
2023-04-06T12:09:27.504Z,39.94
2023-04-06T12:12:40.003Z,39.85
2023-04-06T12:19:10.932Z,38.83
2023-04-06T12:22:16.898Z,37.28
2023-04-06T12:25:24.302Z,37.10
2023-04-06T12:28:32.633Z,37.44
2023-04-06T12:31:44.576Z,37.54
2023-04-06T12:34:53.409Z,38.38
2023-04-06T12:37:56.712Z,36.71
2023-04-06T12:41:10.173Z,36.41
2023-04-06T12:44:16.366Z,36.74
2023-04-06T12:47:23.195Z,35.43
2023-04-06T12:50:35.768Z,36.72
2023-04-06T12:53:48.842Z,36.27
2023-04-06T12:57:00.025Z,36.10
2023-04-06T13:00:13.070Z,36.39
2023-04-06T13:03:29.188Z,36.21
2023-04-06T13:06:32.332Z,35.79
2023-04-06T13:09:38.410Z,34.86
2023-04-06T13:12:43.063Z,35.50
2023-04-06T13:15:49.340Z,34.05
2023-04-06T13:19:00.692Z,34.96
2023-04-06T13:22:14.193Z,35.17
2023-04-06T13:25:20.127Z,35.93
2023-04-06T13:28:22.141Z,34.58
2023-04-06T13:31:34.456Z,34.64
2023-04-06T13:34:41.236Z,35.74
2023-04-06T13:44:24.327Z,34.06
2023-04-06T13:47:36.553Z,33.65
2023-04-06T13:50:39.812Z,33.52
2023-04-06T13:53:45.459Z,32.84
2023-04-06T13:56:47.438Z,31.98
2023-04-06T14:03:11.037Z,31.12
2023-04-06T14:06:31.713Z,31.37
2023-04-06T14:09:38.166Z,30.81
2023-04-06T14:12:45.077Z,28.28
2023-04-06T14:15:52.579Z,28.63
2023-04-06T14:18:57.345Z,27.70
2023-04-06T14:22:08.639Z,28.76
2023-04-06T14:25:13.945Z,27.97
2023-04-06T14:28:26.495Z,27.72
2023-04-06T14:31:31.231Z,27.65
2023-04-06T14:34:43.191Z,28.08
2023-04-06T14:37:47.537Z,28.33
2023-04-06T14:40:59.525Z,27.31
2023-04-06T14:44:13.149Z,27.72
2023-04-06T14:47:23.973Z,28.29
2023-04-06T14:50:36.417Z,27.68
2023-04-06T14:53:41.596Z,26.75
2023-04-06T14:56:49.700Z,24.91
2023-04-06T14:59:55.397Z,25.15
2023-04-06T15:03:01.058Z,25.78
2023-04-06T15:06:04.392Z,26.28
2023-04-06T15:09:15.498Z,26.30
2023-04-06T15:12:21.287Z,25.75
2023-04-06T15:15:33.561Z,24.80
2023-04-06T15:18:37.894Z,25.24
2023-04-06T15:21:42.107Z,24.29
2023-04-06T15:24:46.840Z,25.17
2023-04-06T15:31:33.566Z,26.14
2023-04-06T15:34:45.864Z,25.79
2023-04-06T15:41:09.090Z,25.17
2023-04-06T15:44:14.084Z,23.83
2023-04-06T15:47:18.350Z,25.21
2023-04-06T15:50:25.325Z,24.67
2023-04-06T15:53:30.570Z,24.70
2023-04-06T15:56:36.360Z,25.33
2023-04-06T15:59:47.481Z,25.89
2023-04-06T16:02:53.987Z,25.69
2023-04-06T16:06:09.330Z,24.65
2023-04-06T16:09:24.496Z,24.02
2023-04-06T16:12:31.573Z,25.00
2023-04-06T16:15:43.524Z,25.60
2023-04-06T16:18:49.055Z,25.47
2023-04-06T16:21:53.700Z,25.21
2023-04-06T16:24:58.934Z,25.06
2023-04-06T16:31:25.534Z,25.28
2023-04-06T16:34:34.120Z,25.97
2023-04-06T16:37:37.832Z,25.74
2023-04-06T16:41:01.218Z,25.92
2023-04-06T16:44:14.642Z,26.38
2023-04-06T16:47:18.853Z,26.95
2023-04-06T16:50:22.830Z,26.99
2023-04-06T16:53:26.501Z,27.42
2023-04-06T16:56:35.236Z,27.83
2023-04-06T16:59:48.009Z,28.27
2023-04-06T17:02:53.201Z,28.45
2023-04-06T17:06:06.430Z,28.14
2023-04-06T17:09:12.610Z,28.06
2023-04-06T17:12:18.279Z,28.50
2023-04-06T17:15:27.306Z,28.12
2023-04-06T17:18:31.728Z,28.81
2023-04-06T17:21:34.938Z,28.94
2023-04-06T17:24:45.631Z,29.09
2023-04-06T17:27:56.823Z,29.90
2023-04-06T17:31:01.633Z,30.10
2023-04-06T17:34:03.628Z,30.64
2023-04-06T17:37:09.566Z,31.33
2023-04-06T17:40:15.195Z,32.13
2023-04-06T17:43:27.389Z,33.06
2023-04-06T17:46:30.953Z,35.23
2023-04-06T17:49:34.229Z,34.69
2023-04-06T17:55:55.438Z,36.78
2023-04-06T17:58:59.935Z,37.15
2023-04-06T18:02:05.499Z,38.06
2023-04-06T18:05:17.944Z,38.89
2023-04-06T18:08:25.662Z,39.34
2023-04-06T18:11:34.726Z,40.36
2023-04-06T18:14:45.493Z,41.20
2023-04-06T18:17:58.596Z,41.27
2023-04-06T18:21:09.856Z,42.11
2023-04-06T18:24:27.295Z,42.10
2023-04-06T18:27:37.848Z,42.91
2023-04-06T18:30:49.653Z,42.80
2023-04-06T18:33:53.864Z,42.80
2023-04-06T18:37:09.420Z,43.11
2023-04-06T18:40:39.094Z,44.45
2023-04-06T18:43:43.318Z,44.28
2023-04-06T18:50:07.858Z,45.09
2023-04-06T18:53:10.774Z,45.45
2023-04-06T18:56:23.288Z,46.09
2023-04-06T18:59:32.453Z,46.17
2023-04-06T19:02:36.879Z,46.64
2023-04-06T19:05:44.152Z,46.36
2023-04-06T19:08:49.454Z,46.69
2023-04-06T19:11:52.835Z,46.33
2023-04-06T19:14:58.383Z,46.70
2023-04-06T19:18:01.735Z,46.56
2023-04-06T19:21:30.676Z,47.34
2023-04-06T19:24:33.642Z,47.05
2023-04-06T19:27:44.746Z,47.77
2023-04-06T19:30:48.583Z,47.69
2023-04-06T19:37:14.891Z,47.65
2023-04-06T19:40:17.564Z,48.05
2023-04-06T19:43:20.773Z,48.55
2023-04-06T19:46:26.512Z,48.25
2023-04-06T19:49:30.864Z,48.48
2023-04-06T19:52:40.282Z,49.25
2023-04-06T19:55:46.118Z,49.23
2023-04-06T19:58:51.412Z,49.16
2023-04-06T20:01:55.192Z,49.33
2023-04-06T20:04:56.898Z,49.86
2023-04-06T20:08:01.534Z,50.17
2023-04-06T20:11:25.239Z,50.37
2023-04-06T20:14:37.206Z,50.76
2023-04-06T20:17:50.159Z,50.74
2023-04-06T20:20:56.797Z,50.72
2023-04-06T20:24:02.574Z,50.79
2023-04-06T20:27:06.758Z,51.19
2023-04-06T20:30:22.400Z,50.61
2023-04-06T20:33:26.761Z,51.05
2023-04-06T20:36:35.774Z,51.32
2023-04-06T20:39:41.213Z,50.72
2023-04-06T20:42:44.650Z,50.68
2023-04-06T20:45:50.973Z,50.81
2023-04-06T20:48:56.861Z,51.42
2023-04-06T20:52:02.609Z,51.79
2023-04-06T20:55:18.665Z,51.36
2023-04-06T20:58:21.948Z,51.47
2023-04-06T21:01:26.950Z,51.70
2023-04-06T21:04:41.965Z,51.91
2023-04-06T21:07:48.430Z,52.15
2023-04-06T21:10:51.641Z,52.37
2023-04-06T21:13:55.798Z,52.24
2023-04-06T21:17:08.972Z,52.62
2023-04-06T21:20:18.513Z,52.58
2023-04-06T21:23:31.610Z,52.56
2023-04-06T21:26:37.547Z,53.28
2023-04-06T21:29:48.723Z,53.64
2023-04-06T21:32:51.542Z,54.14
2023-04-06T21:35:56.496Z,54.23
2023-04-06T21:39:08.138Z,55.10
2023-04-06T21:42:14.345Z,55.48
2023-04-06T21:45:18.762Z,55.96
2023-04-06T21:48:27.621Z,55.66
2023-04-06T21:51:30.711Z,56.39
2023-04-06T21:54:38.974Z,56.93
2023-04-06T21:57:43.638Z,56.79
2023-04-06T22:00:49.446Z,57.51
2023-04-06T22:03:55.554Z,57.56
2023-04-06T22:07:01.435Z,57.63
2023-04-06T22:10:06.191Z,57.45
2023-04-06T22:13:12.586Z,57.66
2023-04-06T22:16:21.897Z,57.53
2023-04-06T22:19:26.045Z,57.23
2023-04-06T22:22:38.475Z,56.88
2023-04-06T22:25:45.051Z,57.12
2023-04-06T22:28:50.584Z,56.87
2023-04-06T22:31:57.636Z,56.09
2023-04-06T22:35:11.727Z,56.90
2023-04-06T22:38:16.887Z,57.25
2023-04-06T22:41:20.602Z,58.03
2023-04-06T22:44:31.481Z,58.11
2023-04-06T22:47:36.929Z,58.85
2023-04-06T22:50:47.971Z,59.37
2023-04-06T22:57:09.905Z,60.00
2023-04-06T23:00:13.818Z,60.37
2023-04-06T23:03:26.374Z,60.87
2023-04-06T23:06:42.158Z,60.36
2023-04-06T23:09:47.627Z,61.32
2023-04-06T23:16:12.955Z,61.97
2023-04-06T23:19:17.274Z,62.32
2023-04-06T23:22:22.516Z,61.71
2023-04-06T23:28:49.954Z,61.80
2023-04-06T23:31:51.943Z,62.04
2023-04-06T23:34:56.115Z,62.47
2023-04-06T23:38:06.910Z,62.50
2023-04-06T23:41:16.321Z,62.63
2023-04-06T23:44:30.303Z,62.91
2023-04-06T23:47:33.520Z,63.05
2023-04-06T23:50:38.056Z,63.21
2023-04-06T23:54:01.037Z,64.19
2023-04-06T23:57:02.952Z,64.40
